sensor_id;sensor_type;location;lat;lon;timestamp;P1;durP1;ratioP1;P2;durP2;ratioP2
12373;SDS011;6251;51.762;8.660;2024-03-23T02:01:34;29.30;;;8.27;;
12373;SDS011;6251;51.762;8.660;2024-03-23T02:11:38;34.72;;;8.95;;
12373;SDS011;6251;51.762;8.660;2024-03-23T03:53:12;8.73;;;3.97;;
12373;SDS011;6251;51.762;8.660;2024-03-23T05:04:15;12.48;;;5.12;;
12373;SDS011;6251;51.762;8.660;2024-03-23T05:14:15;21.95;;;4.75;;
12373;SDS011;6251;51.762;8.660;2024-03-23T05:24:16;10.18;;;4.45;;
12373;SDS011;6251;51.762;8.660;2024-03-23T05:34:16;20.00;;;4.97;;
12373;SDS011;6251;51.762;8.660;2024-03-23T05:44:17;12.27;;;4.30;;
12373;SDS011;6251;51.762;8.660;2024-03-23T05:54:18;12.68;;;4.07;;
12373;SDS011;6251;51.762;8.660;2024-03-23T06:04:19;15.45;;;3.47;;
12373;SDS011;6251;51.762;8.660;2024-03-23T06:14:19;25.77;;;3.65;;
12373;SDS011;6251;51.762;8.660;2024-03-23T06:24:21;10.30;;;3.35;;
12373;SDS011;6251;51.762;8.660;2024-03-23T06:34:22;8.70;;;3.00;;
12373;SDS011;6251;51.762;8.660;2024-03-23T06:44:23;9.85;;;2.92;;
12373;SDS011;6251;51.762;8.660;2024-03-23T06:54:24;16.15;;;3.40;;
12373;SDS011;6251;51.762;8.660;2024-03-23T07:04:24;13.15;;;4.10;;
12373;SDS011;6251;51.762;8.660;2024-03-23T07:14:25;22.62;;;5.45;;
12373;SDS011;6251;51.762;8.660;2024-03-23T07:24:26;29.02;;;7.90;;
12373;SDS011;6251;51.762;8.660;2024-03-23T07:34:26;35.92;;;10.27;;
12373;SDS011;6251;51.762;8.660;2024-03-23T07:44:27;43.83;;;12.77;;
12373;SDS011;6251;51.762;8.660;2024-03-23T07:54:27;36.53;;;12.53;;
12373;SDS011;6251;51.762;8.660;2024-03-23T08:04:28;41.90;;;15.93;;
12373;SDS011;6251;51.762;8.660;2024-03-23T08:14:29;58.20;;;18.80;;
12373;SDS011;6251;51.762;8.660;2024-03-23T08:24:29;59.38;;;19.62;;
12373;SDS011;6251;51.762;8.660;2024-03-23T08:34:30;37.00;;;17.85;;
12373;SDS011;6251;51.762;8.660;2024-03-23T08:44:31;46.78;;;19.52;;
12373;SDS011;6251;51.762;8.660;2024-03-23T08:54:31;32.42;;;15.20;;
12373;SDS011;6251;51.762;8.660;2024-03-23T09:04:32;38.90;;;16.40;;
12373;SDS011;6251;51.762;8.660;2024-03-23T09:14:33;32.63;;;16.25;;
12373;SDS011;6251;51.762;8.660;2024-03-23T09:24:34;35.50;;;14.43;;
12373;SDS011;6251;51.762;8.660;2024-03-23T09:34:34;30.65;;;13.02;;
12373;SDS011;6251;51.762;8.660;2024-03-23T09:44:35;21.10;;;11.43;;
12373;SDS011;6251;51.762;8.660;2024-03-23T09:54:36;16.80;;;9.98;;
12373;SDS011;6251;51.762;8.660;2024-03-23T10:04:41;17.65;;;10.07;;
12373;SDS011;6251;51.762;8.660;2024-03-23T10:14:42;11.20;;;7.70;;
12373;SDS011;6251;51.762;8.660;2024-03-23T10:24:43;12.95;;;6.55;;
12373;SDS011;6251;51.762;8.660;2024-03-23T10:34:44;10.82;;;5.60;;
12373;SDS011;6251;51.762;8.660;2024-03-23T10:44:45;3.33;;;1.90;;
12373;SDS011;6251;51.762;8.660;2024-03-23T10:54:46;4.68;;;2.15;;
12373;SDS011;6251;51.762;8.660;2024-03-23T11:04:50;2.65;;;1.80;;
12373;SDS011;6251;51.762;8.660;2024-03-23T11:14:52;4.35;;;1.98;;
12373;SDS011;6251;51.762;8.660;2024-03-23T11:24:54;7.00;;;3.22;;
12373;SDS011;6251;51.762;8.660;2024-03-23T11:34:55;11.10;;;4.70;;
12373;SDS011;6251;51.762;8.660;2024-03-23T11:44:55;10.30;;;5.47;;
12373;SDS011;6251;51.762;8.660;2024-03-23T11:55:02;16.27;;;8.30;;
12373;SDS011;6251;51.762;8.660;2024-03-23T12:05:22;17.98;;;8.38;;
12373;SDS011;6251;51.762;8.660;2024-03-23T12:15:23;16.77;;;8.55;;
12373;SDS011;6251;51.762;8.660;2024-03-23T12:25:23;16.08;;;8.73;;
12373;SDS011;6251;51.762;8.660;2024-03-23T12:35:24;17.92;;;9.15;;
12373;SDS011;6251;51.762;8.660;2024-03-23T12:45:25;5.45;;;3.92;;
12373;SDS011;6251;51.762;8.660;2024-03-23T12:55:25;3.03;;;2.72;;
12373;SDS011;6251;51.762;8.660;2024-03-23T13:05:26;4.37;;;2.40;;
12373;SDS011;6251;51.762;8.660;2024-03-23T13:15:26;3.45;;;2.10;;
12373;SDS011;6251;51.762;8.660;2024-03-23T13:25:27;2.17;;;1.95;;
12373;SDS011;6251;51.762;8.660;2024-03-23T13:35:27;5.25;;;2.35;;
12373;SDS011;6251;51.762;8.660;2024-03-23T13:45:28;3.03;;;2.75;;
12373;SDS011;6251;51.762;8.660;2024-03-23T13:55:28;8.68;;;3.80;;
12373;SDS011;6251;51.762;8.660;2024-03-23T14:05:29;6.18;;;4.70;;
12373;SDS011;6251;51.762;8.660;2024-03-23T14:15:30;7.87;;;5.85;;
12373;SDS011;6251;51.762;8.660;2024-03-23T14:25:31;5.93;;;4.00;;
12373;SDS011;6251;51.762;8.660;2024-03-23T14:35:31;2.97;;;2.67;;
12373;SDS011;6251;51.762;8.660;2024-03-23T14:45:33;5.72;;;3.05;;
12373;SDS011;6251;51.762;8.660;2024-03-23T14:55:34;3.03;;;2.83;;
12373;SDS011;6251;51.762;8.660;2024-03-23T15:05:34;6.40;;;4.32;;
12373;SDS011;6251;51.762;8.660;2024-03-23T15:15:43;8.35;;;5.72;;
12373;SDS011;6251;51.762;8.660;2024-03-23T15:25:44;8.30;;;5.97;;
12373;SDS011;6251;51.762;8.660;2024-03-23T15:35:45;6.37;;;5.28;;
12373;SDS011;6251;51.762;8.660;2024-03-23T15:45:55;8.18;;;4.95;;
12373;SDS011;6251;51.762;8.660;2024-03-23T16:15:59;11.07;;;4.80;;
12373;SDS011;6251;51.762;8.660;2024-03-23T16:26:06;9.05;;;5.00;;
12373;SDS011;6251;51.762;8.660;2024-03-23T16:36:08;6.60;;;4.82;;
12373;SDS011;6251;51.762;8.660;2024-03-23T16:46:10;7.00;;;4.90;;
12373;SDS011;6251;51.762;8.660;2024-03-23T16:56:12;7.28;;;5.25;;
12373;SDS011;6251;51.762;8.660;2024-03-23T17:06:13;10.10;;;6.20;;
12373;SDS011;6251;51.762;8.660;2024-03-23T17:16:15;8.75;;;5.40;;
12373;SDS011;6251;51.762;8.660;2024-03-23T17:26:16;6.85;;;4.28;;
12373;SDS011;6251;51.762;8.660;2024-03-23T17:36:19;12.35;;;4.62;;
12373;SDS011;6251;51.762;8.660;2024-03-23T17:46:26;6.65;;;4.57;;
12373;SDS011;6251;51.762;8.660;2024-03-23T17:56:27;8.85;;;4.85;;
12373;SDS011;6251;51.762;8.660;2024-03-23T18:06:28;5.00;;;4.45;;
12373;SDS011;6251;51.762;8.660;2024-03-23T18:16:28;4.28;;;3.87;;
12373;SDS011;6251;51.762;8.660;2024-03-23T18:26:29;8.55;;;5.15;;
12373;SDS011;6251;51.762;8.660;2024-03-23T18:36:29;8.70;;;5.35;;
12373;SDS011;6251;51.762;8.660;2024-03-23T18:46:30;7.70;;;2.17;;
12373;SDS011;6251;51.762;8.660;2024-03-23T18:56:31;7.07;;;2.50;;
12373;SDS011;6251;51.762;8.660;2024-03-23T19:06:31;4.50;;;4.05;;
12373;SDS011;6251;51.762;8.660;2024-03-23T19:16:32;3.30;;;2.70;;
12373;SDS011;6251;51.762;8.660;2024-03-23T19:26:32;7.05;;;5.07;;
12373;SDS011;6251;51.762;8.660;2024-03-23T19:36:33;6.53;;;5.90;;
12373;SDS011;6251;51.762;8.660;2024-03-23T19:46:33;8.48;;;4.90;;
12373;SDS011;6251;51.762;8.660;2024-03-23T19:56:34;5.97;;;3.95;;
12373;SDS011;6251;51.762;8.660;2024-03-23T20:06:34;5.50;;;3.87;;
12373;SDS011;6251;51.762;8.660;2024-03-23T20:16:35;9.30;;;4.50;;
12373;SDS011;6251;51.762;8.660;2024-03-23T20:26:39;10.43;;;6.67;;
12373;SDS011;6251;51.762;8.660;2024-03-23T20:36:39;10.85;;;7.03;;
12373;SDS011;6251;51.762;8.660;2024-03-23T20:46:40;10.53;;;8.53;;
12373;SDS011;6251;51.762;8.660;2024-03-23T20:56:41;11.07;;;6.83;;
12373;SDS011;6251;51.762;8.660;2024-03-23T21:06:42;10.82;;;6.47;;
12373;SDS011;6251;51.762;8.660;2024-03-23T21:16:43;7.95;;;6.95;;
12373;SDS011;6251;51.762;8.660;2024-03-23T21:26:43;11.23;;;6.90;;
12373;SDS011;6251;51.762;8.660;2024-03-23T21:36:44;9.82;;;7.22;;
12373;SDS011;6251;51.762;8.660;2024-03-23T21:46:44;11.25;;;8.35;;
12373;SDS011;6251;51.762;8.660;2024-03-23T21:56:45;18.02;;;10.38;;
12373;SDS011;6251;51.762;8.660;2024-03-23T22:06:46;14.80;;;8.60;;
12373;SDS011;6251;51.762;8.660;2024-03-23T22:16:46;13.27;;;8.27;;
12373;SDS011;6251;51.762;8.660;2024-03-23T22:26:47;15.20;;;10.00;;
12373;SDS011;6251;51.762;8.660;2024-03-23T22:36:48;25.80;;;13.90;;
12373;SDS011;6251;51.762;8.660;2024-03-23T22:46:48;25.15;;;14.18;;
12373;SDS011;6251;51.762;8.660;2024-03-23T22:56:49;26.62;;;13.52;;
12373;SDS011;6251;51.762;8.660;2024-03-23T23:06:49;29.98;;;14.15;;
12373;SDS011;6251;51.762;8.660;2024-03-23T23:16:50;25.50;;;12.18;;
12373;SDS011;6251;51.762;8.660;2024-03-23T23:26:51;18.60;;;11.50;;
12373;SDS011;6251;51.762;8.660;2024-03-23T23:36:53;21.20;;;12.18;;
12373;SDS011;6251;51.762;8.660;2024-03-23T23:46:53;23.10;;;13.70;;
12373;SDS011;6251;51.762;8.660;2024-03-23T23:56:54;25.60;;;13.67;;
